sensor_id;sensor_type;location;lat;lon;timestamp;P1;durP1;ratioP1;P2;durP2;ratioP2
12302;SDS011;6214;48.012;7.862;2024-01-30T00:02:25;4.20;;;0.80;;
12302;SDS011;6214;48.012;7.862;2024-01-30T00:04:52;4.10;;;0.70;;
12302;SDS011;6214;48.012;7.862;2024-01-30T00:07:18;4.30;;;0.80;;
12302;SDS011;6214;48.012;7.862;2024-01-30T00:09:46;4.00;;;0.70;;
12302;SDS011;6214;48.012;7.862;2024-01-30T00:12:14;4.60;;;1.00;;
12302;SDS011;6214;48.012;7.862;2024-01-30T00:14:41;4.40;;;0.90;;
12302;SDS011;6214;48.012;7.862;2024-01-30T00:17:09;4.20;;;0.80;;
12302;SDS011;6214;48.012;7.862;2024-01-30T00:19:36;4.50;;;1.10;;
12302;SDS011;6214;48.012;7.862;2024-01-30T00:22:03;5.15;;;1.30;;
12302;SDS011;6214;48.012;7.862;2024-01-30T00:24:30;4.50;;;0.90;;
12302;SDS011;6214;48.012;7.862;2024-01-30T00:26:57;4.43;;;0.90;;
12302;SDS011;6214;48.012;7.862;2024-01-30T00:29:24;4.20;;;0.70;;
12302;SDS011;6214;48.012;7.862;2024-01-30T00:31:55;4.10;;;0.70;;
12302;SDS011;6214;48.012;7.862;2024-01-30T00:34:22;5.10;;;0.70;;
12302;SDS011;6214;48.012;7.862;2024-01-30T00:36:49;4.20;;;0.70;;
12302;SDS011;6214;48.012;7.862;2024-01-30T00:39:16;4.20;;;0.70;;
12302;SDS011;6214;48.012;7.862;2024-01-30T00:41:45;4.50;;;0.80;;
12302;SDS011;6214;48.012;7.862;2024-01-30T00:44:12;4.32;;;0.73;;
12302;SDS011;6214;48.012;7.862;2024-01-30T00:46:39;4.40;;;0.90;;
12302;SDS011;6214;48.012;7.862;2024-01-30T00:49:06;4.40;;;0.90;;
12302;SDS011;6214;48.012;7.862;2024-01-30T00:51:33;4.57;;;1.20;;
12302;SDS011;6214;48.012;7.862;2024-01-30T00:54:00;4.32;;;0.90;;
12302;SDS011;6214;48.012;7.862;2024-01-30T00:56:26;4.38;;;0.90;;
12302;SDS011;6214;48.012;7.862;2024-01-30T00:58:54;4.60;;;0.90;;
12302;SDS011;6214;48.012;7.862;2024-01-30T01:01:20;4.30;;;0.90;;
12302;SDS011;6214;48.012;7.862;2024-01-30T01:03:47;4.90;;;1.00;;
12302;SDS011;6214;48.012;7.862;2024-01-30T01:06:15;4.50;;;0.90;;
12302;SDS011;6214;48.012;7.862;2024-01-30T01:08:42;4.40;;;0.80;;
12302;SDS011;6214;48.012;7.862;2024-01-30T01:11:08;4.30;;;0.90;;
12302;SDS011;6214;48.012;7.862;2024-01-30T01:13:35;4.55;;;1.00;;
12302;SDS011;6214;48.012;7.862;2024-01-30T01:16:02;4.43;;;0.95;;
12302;SDS011;6214;48.012;7.862;2024-01-30T01:18:30;4.50;;;1.00;;
12302;SDS011;6214;48.012;7.862;2024-01-30T01:20:57;5.40;;;1.00;;
12302;SDS011;6214;48.012;7.862;2024-01-30T01:23:24;4.30;;;0.90;;
12302;SDS011;6214;48.012;7.862;2024-01-30T01:25:50;4.60;;;1.10;;
12302;SDS011;6214;48.012;7.862;2024-01-30T01:28:17;4.40;;;0.80;;
12302;SDS011;6214;48.012;7.862;2024-01-30T01:30:45;4.10;;;0.60;;
12302;SDS011;6214;48.012;7.862;2024-01-30T01:33:12;4.43;;;0.70;;
12302;SDS011;6214;48.012;7.862;2024-01-30T01:35:41;4.60;;;1.00;;
12302;SDS011;6214;48.012;7.862;2024-01-30T01:38:07;5.20;;;1.15;;
12302;SDS011;6214;48.012;7.862;2024-01-30T01:40:34;4.30;;;0.82;;
12302;SDS011;6214;48.012;7.862;2024-01-30T01:43:02;4.10;;;0.70;;
12302;SDS011;6214;48.012;7.862;2024-01-30T01:45:31;4.40;;;0.70;;
12302;SDS011;6214;48.012;7.862;2024-01-30T01:47:58;4.40;;;0.90;;
12302;SDS011;6214;48.012;7.862;2024-01-30T01:50:25;4.30;;;0.90;;
12302;SDS011;6214;48.012;7.862;2024-01-30T01:52:53;4.40;;;1.00;;
12302;SDS011;6214;48.012;7.862;2024-01-30T01:55:21;4.50;;;0.90;;
12302;SDS011;6214;48.012;7.862;2024-01-30T01:57:50;4.10;;;0.70;;
12302;SDS011;6214;48.012;7.862;2024-01-30T02:00:19;4.22;;;0.80;;
12302;SDS011;6214;48.012;7.862;2024-01-30T02:02:46;4.50;;;1.00;;
12302;SDS011;6214;48.012;7.862;2024-01-30T02:05:14;4.60;;;1.10;;
12302;SDS011;6214;48.012;7.862;2024-01-30T02:07:42;4.50;;;0.93;;
12302;SDS011;6214;48.012;7.862;2024-01-30T02:10:10;4.10;;;0.70;;
12302;SDS011;6214;48.012;7.862;2024-01-30T02:12:37;4.40;;;1.00;;
12302;SDS011;6214;48.012;7.862;2024-01-30T02:15:04;4.30;;;0.90;;
12302;SDS011;6214;48.012;7.862;2024-01-30T02:17:31;4.50;;;1.10;;
12302;SDS011;6214;48.012;7.862;2024-01-30T02:19:59;4.10;;;0.60;;
12302;SDS011;6214;48.012;7.862;2024-01-30T02:22:27;4.22;;;0.80;;
12302;SDS011;6214;48.012;7.862;2024-01-30T02:24:54;4.40;;;0.90;;
12302;SDS011;6214;48.012;7.862;2024-01-30T02:27:21;4.45;;;1.10;;
12302;SDS011;6214;48.012;7.862;2024-01-30T02:29:47;4.10;;;0.70;;
12302;SDS011;6214;48.012;7.862;2024-01-30T02:32:14;4.00;;;0.50;;
12302;SDS011;6214;48.012;7.862;2024-01-30T02:34:41;4.10;;;0.53;;
12302;SDS011;6214;48.012;7.862;2024-01-30T02:37:08;4.30;;;0.90;;
12302;SDS011;6214;48.012;7.862;2024-01-30T02:39:35;4.30;;;0.80;;
12302;SDS011;6214;48.012;7.862;2024-01-30T02:42:02;4.30;;;0.90;;
12302;SDS011;6214;48.012;7.862;2024-01-30T02:44:28;4.70;;;0.85;;
12302;SDS011;6214;48.012;7.862;2024-01-30T02:46:55;4.47;;;1.00;;
12302;SDS011;6214;48.012;7.862;2024-01-30T02:49:22;4.20;;;0.70;;
12302;SDS011;6214;48.012;7.862;2024-01-30T02:51:49;4.80;;;0.90;;
12302;SDS011;6214;48.012;7.862;2024-01-30T02:54:16;4.30;;;0.73;;
12302;SDS011;6214;48.012;7.862;2024-01-30T02:56:42;4.30;;;0.70;;
12302;SDS011;6214;48.012;7.862;2024-01-30T02:59:09;4.10;;;0.70;;
12302;SDS011;6214;48.012;7.862;2024-01-30T03:01:43;4.10;;;0.60;;
12302;SDS011;6214;48.012;7.862;2024-01-30T03:04:10;4.13;;;0.60;;
12302;SDS011;6214;48.012;7.862;2024-01-30T03:06:38;4.70;;;1.10;;
12302;SDS011;6214;48.012;7.862;2024-01-30T03:09:04;4.43;;;0.90;;
12302;SDS011;6214;48.012;7.862;2024-01-30T03:11:31;4.30;;;0.90;;
12302;SDS011;6214;48.012;7.862;2024-01-30T03:13:58;4.20;;;0.77;;
12302;SDS011;6214;48.012;7.862;2024-01-30T03:16:25;4.22;;;0.80;;
12302;SDS011;6214;48.012;7.862;2024-01-30T03:18:51;4.30;;;0.90;;
12302;SDS011;6214;48.012;7.862;2024-01-30T03:21:19;4.20;;;0.80;;
12302;SDS011;6214;48.012;7.862;2024-01-30T03:23:45;4.47;;;0.70;;
12302;SDS011;6214;48.012;7.862;2024-01-30T03:26:12;4.80;;;1.25;;
12302;SDS011;6214;48.012;7.862;2024-01-30T03:28:40;4.80;;;1.00;;
12302;SDS011;6214;48.012;7.862;2024-01-30T03:31:07;4.40;;;0.90;;
12302;SDS011;6214;48.012;7.862;2024-01-30T03:33:34;4.40;;;0.85;;
12302;SDS011;6214;48.012;7.862;2024-01-30T03:36:03;5.20;;;1.20;;
12302;SDS011;6214;48.012;7.862;2024-01-30T03:38:31;4.30;;;0.90;;
12302;SDS011;6214;48.012;7.862;2024-01-30T03:40:59;4.90;;;1.10;;
12302;SDS011;6214;48.012;7.862;2024-01-30T03:43:26;4.50;;;1.00;;
12302;SDS011;6214;48.012;7.862;2024-01-30T03:45:53;4.40;;;0.98;;
12302;SDS011;6214;48.012;7.862;2024-01-30T03:48:20;4.60;;;1.10;;
12302;SDS011;6214;48.012;7.862;2024-01-30T03:50:47;4.50;;;1.00;;
12302;SDS011;6214;48.012;7.862;2024-01-30T03:53:14;4.68;;;1.30;;
12302;SDS011;6214;48.012;7.862;2024-01-30T03:55:41;4.80;;;1.30;;
12302;SDS011;6214;48.012;7.862;2024-01-30T03:58:08;5.00;;;1.52;;
12302;SDS011;6214;48.012;7.862;2024-01-30T04:00:34;4.50;;;1.25;;
12302;SDS011;6214;48.012;7.862;2024-01-30T04:03:02;4.50;;;1.20;;
12302;SDS011;6214;48.012;7.862;2024-01-30T04:05:29;4.90;;;1.40;;
12302;SDS011;6214;48.012;7.862;2024-01-30T04:07:56;4.90;;;1.40;;
12302;SDS011;6214;48.012;7.862;2024-01-30T04:10:23;5.35;;;1.80;;
12302;SDS011;6214;48.012;7.862;2024-01-30T04:12:51;5.30;;;1.40;;
12302;SDS011;6214;48.012;7.862;2024-01-30T04:15:18;4.90;;;1.50;;
12302;SDS011;6214;48.012;7.862;2024-01-30T04:17:44;4.90;;;1.70;;
12302;SDS011;6214;48.012;7.862;2024-01-30T04:20:15;4.90;;;1.50;;
12302;SDS011;6214;48.012;7.862;2024-01-30T04:22:45;4.65;;;1.40;;
12302;SDS011;6214;48.012;7.862;2024-01-30T04:25:12;5.03;;;1.52;;
12302;SDS011;6214;48.012;7.862;2024-01-30T04:27:40;5.00;;;1.60;;
12302;SDS011;6214;48.012;7.862;2024-01-30T04:30:07;4.80;;;1.40;;
12302;SDS011;6214;48.012;7.862;2024-01-30T04:32:34;5.45;;;1.60;;
12302;SDS011;6214;48.012;7.862;2024-01-30T04:35:02;4.73;;;1.30;;
12302;SDS011;6214;48.012;7.862;2024-01-30T04:37:35;4.85;;;1.30;;
12302;SDS011;6214;48.012;7.862;2024-01-30T04:40:02;4.70;;;1.30;;
12302;SDS011;6214;48.012;7.862;2024-01-30T04:42:29;4.50;;;1.00;;
12302;SDS011;6214;48.012;7.862;2024-01-30T04:44:56;4.97;;;1.30;;
12302;SDS011;6214;48.012;7.862;2024-01-30T04:47:22;4.90;;;1.50;;
12302;SDS011;6214;48.012;7.862;2024-01-30T04:49:51;4.80;;;1.10;;
12302;SDS011;6214;48.012;7.862;2024-01-30T04:52:18;4.80;;;1.30;;
12302;SDS011;6214;48.012;7.862;2024-01-30T04:54:44;5.10;;;1.40;;
12302;SDS011;6214;48.012;7.862;2024-01-30T04:57:11;4.60;;;1.13;;
12302;SDS011;6214;48.012;7.862;2024-01-30T04:59:38;4.90;;;1.30;;
12302;SDS011;6214;48.012;7.862;2024-01-30T05:02:05;4.70;;;1.00;;
12302;SDS011;6214;48.012;7.862;2024-01-30T05:04:33;4.50;;;1.00;;
12302;SDS011;6214;48.012;7.862;2024-01-30T05:07:00;4.70;;;1.20;;
12302;SDS011;6214;48.012;7.862;2024-01-30T05:09:27;4.50;;;1.20;;
12302;SDS011;6214;48.012;7.862;2024-01-30T05:11:54;4.55;;;1.10;;
12302;SDS011;6214;48.012;7.862;2024-01-30T05:14:21;4.40;;;1.00;;
12302;SDS011;6214;48.012;7.862;2024-01-30T05:16:48;4.72;;;1.23;;
12302;SDS011;6214;48.012;7.862;2024-01-30T05:19:14;4.60;;;1.10;;
12302;SDS011;6214;48.012;7.862;2024-01-30T05:21:41;5.00;;;1.60;;
12302;SDS011;6214;48.012;7.862;2024-01-30T05:24:08;4.68;;;1.30;;
12302;SDS011;6214;48.012;7.862;2024-01-30T05:26:36;4.80;;;1.35;;
12302;SDS011;6214;48.012;7.862;2024-01-30T05:29:03;4.50;;;1.05;;
12302;SDS011;6214;48.012;7.862;2024-01-30T05:31:30;4.70;;;1.10;;
12302;SDS011;6214;48.012;7.862;2024-01-30T05:33:57;5.00;;;1.20;;
12302;SDS011;6214;48.012;7.862;2024-01-30T05:36:24;4.60;;;1.20;;
12302;SDS011;6214;48.012;7.862;2024-01-30T05:38:51;4.70;;;1.20;;
12302;SDS011;6214;48.012;7.862;2024-01-30T05:41:18;4.57;;;1.10;;
12302;SDS011;6214;48.012;7.862;2024-01-30T05:43:47;4.68;;;1.17;;
12302;SDS011;6214;48.012;7.862;2024-01-30T05:46:14;4.60;;;1.13;;
12302;SDS011;6214;48.012;7.862;2024-01-30T05:48:41;4.40;;;1.00;;
12302;SDS011;6214;48.012;7.862;2024-01-30T05:51:08;4.40;;;1.00;;
12302;SDS011;6214;48.012;7.862;2024-01-30T05:53:35;5.10;;;1.42;;
12302;SDS011;6214;48.012;7.862;2024-01-30T05:56:02;5.07;;;1.20;;
12302;SDS011;6214;48.012;7.862;2024-01-30T05:58:29;4.80;;;1.30;;
12302;SDS011;6214;48.012;7.862;2024-01-30T06:00:57;4.57;;;1.20;;
12302;SDS011;6214;48.012;7.862;2024-01-30T06:03:24;5.40;;;1.40;;
12302;SDS011;6214;48.012;7.862;2024-01-30T06:05:51;4.50;;;1.00;;
12302;SDS011;6214;48.012;7.862;2024-01-30T06:08:18;5.00;;;1.60;;
12302;SDS011;6214;48.012;7.862;2024-01-30T06:10:45;4.80;;;1.30;;
12302;SDS011;6214;48.012;7.862;2024-01-30T06:13:12;5.37;;;1.50;;
12302;SDS011;6214;48.012;7.862;2024-01-30T06:15:38;5.10;;;1.70;;
12302;SDS011;6214;48.012;7.862;2024-01-30T06:18:05;5.38;;;1.80;;
12302;SDS011;6214;48.012;7.862;2024-01-30T06:20:32;6.30;;;2.10;;
12302;SDS011;6214;48.012;7.862;2024-01-30T06:22:59;4.93;;;1.70;;
12302;SDS011;6214;48.012;7.862;2024-01-30T06:25:26;4.88;;;1.60;;
12302;SDS011;6214;48.012;7.862;2024-01-30T06:27:52;5.87;;;2.30;;
12302;SDS011;6214;48.012;7.862;2024-01-30T06:30:19;5.40;;;1.60;;
12302;SDS011;6214;48.012;7.862;2024-01-30T06:32:46;5.18;;;1.65;;
12302;SDS011;6214;48.012;7.862;2024-01-30T06:35:13;4.95;;;1.67;;
12302;SDS011;6214;48.012;7.862;2024-01-30T06:37:39;5.37;;;1.80;;
12302;SDS011;6214;48.012;7.862;2024-01-30T06:40:06;4.85;;;1.60;;
12302;SDS011;6214;48.012;7.862;2024-01-30T06:42:34;5.50;;;1.48;;
12302;SDS011;6214;48.012;7.862;2024-01-30T06:45:01;4.72;;;1.50;;
12302;SDS011;6214;48.012;7.862;2024-01-30T06:47:28;5.70;;;1.60;;
12302;SDS011;6214;48.012;7.862;2024-01-30T06:49:55;4.88;;;1.50;;
12302;SDS011;6214;48.012;7.862;2024-01-30T06:52:22;5.10;;;1.80;;
12302;SDS011;6214;48.012;7.862;2024-01-30T06:54:49;5.28;;;1.80;;
12302;SDS011;6214;48.012;7.862;2024-01-30T06:57:16;5.38;;;1.90;;
12302;SDS011;6214;48.012;7.862;2024-01-30T06:59:42;5.80;;;2.15;;
12302;SDS011;6214;48.012;7.862;2024-01-30T07:02:10;5.10;;;1.80;;
12302;SDS011;6214;48.012;7.862;2024-01-30T07:04:37;5.20;;;1.70;;
12302;SDS011;6214;48.012;7.862;2024-01-30T07:07:10;5.60;;;1.70;;
12302;SDS011;6214;48.012;7.862;2024-01-30T07:09:39;5.10;;;1.60;;
12302;SDS011;6214;48.012;7.862;2024-01-30T07:12:06;5.45;;;1.90;;
12302;SDS011;6214;48.012;7.862;2024-01-30T07:14:33;5.65;;;1.90;;
12302;SDS011;6214;48.012;7.862;2024-01-30T07:17:00;4.97;;;1.50;;
12302;SDS011;6214;48.012;7.862;2024-01-30T07:19:27;4.90;;;1.80;;
12302;SDS011;6214;48.012;7.862;2024-01-30T07:21:54;5.00;;;1.55;;
12302;SDS011;6214;48.012;7.862;2024-01-30T07:24:20;6.10;;;1.92;;
12302;SDS011;6214;48.012;7.862;2024-01-30T07:26:47;5.15;;;1.80;;
12302;SDS011;6214;48.012;7.862;2024-01-30T07:29:14;5.50;;;2.13;;
12302;SDS011;6214;48.012;7.862;2024-01-30T07:31:41;6.10;;;1.60;;
12302;SDS011;6214;48.012;7.862;2024-01-30T07:34:08;5.18;;;1.50;;
12302;SDS011;6214;48.012;7.862;2024-01-30T07:36:35;4.70;;;1.30;;
12302;SDS011;6214;48.012;7.862;2024-01-30T07:39:02;4.95;;;1.45;;
12302;SDS011;6214;48.012;7.862;2024-01-30T07:41:29;5.72;;;1.50;;
12302;SDS011;6214;48.012;7.862;2024-01-30T07:43:55;4.73;;;1.37;;
12302;SDS011;6214;48.012;7.862;2024-01-30T07:46:22;4.85;;;1.70;;
12302;SDS011;6214;48.012;7.862;2024-01-30T07:48:49;5.40;;;1.55;;
12302;SDS011;6214;48.012;7.862;2024-01-30T07:51:20;5.15;;;1.50;;
12302;SDS011;6214;48.012;7.862;2024-01-30T07:53:47;4.80;;;1.40;;
12302;SDS011;6214;48.012;7.862;2024-01-30T07:56:14;5.00;;;1.40;;
12302;SDS011;6214;48.012;7.862;2024-01-30T07:58:42;4.90;;;1.50;;
12302;SDS011;6214;48.012;7.862;2024-01-30T08:01:08;5.30;;;1.80;;
12302;SDS011;6214;48.012;7.862;2024-01-30T08:03:35;5.33;;;1.60;;
12302;SDS011;6214;48.012;7.862;2024-01-30T08:06:03;5.20;;;1.80;;
12302;SDS011;6214;48.012;7.862;2024-01-30T08:08:30;5.30;;;1.95;;
12302;SDS011;6214;48.012;7.862;2024-01-30T08:10:57;5.50;;;1.80;;
12302;SDS011;6214;48.012;7.862;2024-01-30T08:13:24;4.78;;;1.30;;
12302;SDS011;6214;48.012;7.862;2024-01-30T08:15:51;5.10;;;1.70;;
12302;SDS011;6214;48.012;7.862;2024-01-30T08:18:18;5.30;;;1.70;;
12302;SDS011;6214;48.012;7.862;2024-01-30T08:20:44;5.10;;;1.60;;
12302;SDS011;6214;48.012;7.862;2024-01-30T08:23:12;5.10;;;1.70;;
12302;SDS011;6214;48.012;7.862;2024-01-30T08:25:38;5.28;;;1.70;;
12302;SDS011;6214;48.012;7.862;2024-01-30T08:28:05;5.07;;;1.58;;
12302;SDS011;6214;48.012;7.862;2024-01-30T08:30:33;5.15;;;1.63;;
12302;SDS011;6214;48.012;7.862;2024-01-30T08:33:01;5.22;;;1.90;;
12302;SDS011;6214;48.012;7.862;2024-01-30T08:35:27;5.70;;;1.90;;
12302;SDS011;6214;48.012;7.862;2024-01-30T08:37:55;5.32;;;1.73;;
12302;SDS011;6214;48.012;7.862;2024-01-30T08:40:21;5.60;;;1.90;;
12302;SDS011;6214;48.012;7.862;2024-01-30T08:42:48;5.00;;;1.70;;
12302;SDS011;6214;48.012;7.862;2024-01-30T08:45:15;5.43;;;1.67;;
12302;SDS011;6214;48.012;7.862;2024-01-30T08:47:42;5.55;;;1.98;;
12302;SDS011;6214;48.012;7.862;2024-01-30T08:50:09;5.53;;;1.98;;
12302;SDS011;6214;48.012;7.862;2024-01-30T08:52:36;5.40;;;2.00;;
12302;SDS011;6214;48.012;7.862;2024-01-30T08:55:03;5.20;;;1.80;;
12302;SDS011;6214;48.012;7.862;2024-01-30T08:57:31;5.40;;;1.90;;
12302;SDS011;6214;48.012;7.862;2024-01-30T08:59:57;5.43;;;2.00;;
12302;SDS011;6214;48.012;7.862;2024-01-30T09:02:24;5.40;;;1.70;;
12302;SDS011;6214;48.012;7.862;2024-01-30T09:04:51;5.45;;;2.20;;
12302;SDS011;6214;48.012;7.862;2024-01-30T09:07:18;5.80;;;2.40;;
12302;SDS011;6214;48.012;7.862;2024-01-30T09:09:45;5.30;;;2.10;;
12302;SDS011;6214;48.012;7.862;2024-01-30T09:12:12;6.45;;;2.30;;
12302;SDS011;6214;48.012;7.862;2024-01-30T09:14:40;5.68;;;1.90;;
12302;SDS011;6214;48.012;7.862;2024-01-30T09:17:08;5.70;;;2.10;;
12302;SDS011;6214;48.012;7.862;2024-01-30T09:19:35;5.15;;;2.00;;
12302;SDS011;6214;48.012;7.862;2024-01-30T09:22:02;5.10;;;1.90;;
12302;SDS011;6214;48.012;7.862;2024-01-30T09:24:29;6.00;;;1.80;;
12302;SDS011;6214;48.012;7.862;2024-01-30T09:26:56;5.13;;;1.50;;
12302;SDS011;6214;48.012;7.862;2024-01-30T09:29:23;4.70;;;1.42;;
12302;SDS011;6214;48.012;7.862;2024-01-30T09:31:50;5.22;;;1.70;;
12302;SDS011;6214;48.012;7.862;2024-01-30T09:34:17;5.18;;;1.70;;
12302;SDS011;6214;48.012;7.862;2024-01-30T09:36:44;4.70;;;1.30;;
12302;SDS011;6214;48.012;7.862;2024-01-30T09:39:11;5.00;;;1.60;;
12302;SDS011;6214;48.012;7.862;2024-01-30T09:41:44;5.10;;;1.70;;
12302;SDS011;6214;48.012;7.862;2024-01-30T09:44:16;4.70;;;1.17;;
12302;SDS011;6214;48.012;7.862;2024-01-30T09:46:43;4.80;;;1.20;;
12302;SDS011;6214;48.012;7.862;2024-01-30T09:49:14;5.40;;;1.90;;
12302;SDS011;6214;48.012;7.862;2024-01-30T09:51:45;4.70;;;1.48;;
12302;SDS011;6214;48.012;7.862;2024-01-30T09:54:13;5.00;;;1.50;;
12302;SDS011;6214;48.012;7.862;2024-01-30T09:56:41;5.70;;;1.60;;
12302;SDS011;6214;48.012;7.862;2024-01-30T09:59:08;5.43;;;1.70;;
12302;SDS011;6214;48.012;7.862;2024-01-30T10:01:35;4.60;;;1.40;;
12302;SDS011;6214;48.012;7.862;2024-01-30T10:04:03;4.93;;;1.50;;
12302;SDS011;6214;48.012;7.862;2024-01-30T10:06:31;5.38;;;1.70;;
12302;SDS011;6214;48.012;7.862;2024-01-30T10:08:58;4.88;;;1.30;;
12302;SDS011;6214;48.012;7.862;2024-01-30T10:11:25;5.50;;;2.10;;
12302;SDS011;6214;48.012;7.862;2024-01-30T10:13:51;4.83;;;1.60;;
12302;SDS011;6214;48.012;7.862;2024-01-30T10:16:18;5.57;;;2.08;;
12302;SDS011;6214;48.012;7.862;2024-01-30T10:18:45;5.60;;;2.00;;
12302;SDS011;6214;48.012;7.862;2024-01-30T10:21:12;5.10;;;1.77;;
12302;SDS011;6214;48.012;7.862;2024-01-30T10:23:39;4.90;;;1.60;;
12302;SDS011;6214;48.012;7.862;2024-01-30T10:26:07;5.10;;;1.70;;
12302;SDS011;6214;48.012;7.862;2024-01-30T10:28:34;5.50;;;2.00;;
12302;SDS011;6214;48.012;7.862;2024-01-30T10:31:01;5.20;;;1.80;;
12302;SDS011;6214;48.012;7.862;2024-01-30T10:33:32;5.17;;;1.60;;
12302;SDS011;6214;48.012;7.862;2024-01-30T10:36:00;5.00;;;1.50;;
12302;SDS011;6214;48.012;7.862;2024-01-30T10:38:28;4.70;;;1.30;;
12302;SDS011;6214;48.012;7.862;2024-01-30T10:41:00;4.80;;;1.20;;
12302;SDS011;6214;48.012;7.862;2024-01-30T10:43:31;4.80;;;1.20;;
12302;SDS011;6214;48.012;7.862;2024-01-30T10:46:19;5.50;;;1.83;;
12302;SDS011;6214;48.012;7.862;2024-01-30T10:48:56;6.07;;;2.20;;
12302;SDS011;6214;48.012;7.862;2024-01-30T10:51:28;5.57;;;2.10;;
12302;SDS011;6214;48.012;7.862;2024-01-30T10:53:55;5.13;;;1.90;;
12302;SDS011;6214;48.012;7.862;2024-01-30T10:56:24;5.20;;;2.00;;
12302;SDS011;6214;48.012;7.862;2024-01-30T10:58:52;6.25;;;2.60;;
12302;SDS011;6214;48.012;7.862;2024-01-30T11:01:20;5.50;;;1.90;;
12302;SDS011;6214;48.012;7.862;2024-01-30T11:03:51;5.73;;;2.30;;
12302;SDS011;6214;48.012;7.862;2024-01-30T11:06:22;5.75;;;2.20;;
12302;SDS011;6214;48.012;7.862;2024-01-30T11:09:04;5.40;;;1.80;;
12302;SDS011;6214;48.012;7.862;2024-01-30T11:14:26;5.20;;;1.92;;
12302;SDS011;6214;48.012;7.862;2024-01-30T11:16:58;4.97;;;1.70;;
12302;SDS011;6214;48.012;7.862;2024-01-30T11:19:26;6.50;;;2.00;;
12302;SDS011;6214;48.012;7.862;2024-01-30T11:21:54;5.30;;;1.90;;
12302;SDS011;6214;48.012;7.862;2024-01-30T11:24:23;5.30;;;1.90;;
12302;SDS011;6214;48.012;7.862;2024-01-30T11:26:56;5.30;;;1.60;;
12302;SDS011;6214;48.012;7.862;2024-01-30T11:29:25;5.20;;;1.92;;
12302;SDS011;6214;48.012;7.862;2024-01-30T11:31:53;5.00;;;1.70;;
12302;SDS011;6214;48.012;7.862;2024-01-30T11:34:21;5.17;;;1.60;;
12302;SDS011;6214;48.012;7.862;2024-01-30T11:37:03;5.50;;;2.00;;
12302;SDS011;6214;48.012;7.862;2024-01-30T11:39:32;4.90;;;1.60;;
12302;SDS011;6214;48.012;7.862;2024-01-30T11:41:59;5.00;;;1.60;;
12302;SDS011;6214;48.012;7.862;2024-01-30T11:44:31;5.15;;;1.80;;
12302;SDS011;6214;48.012;7.862;2024-01-30T11:46:57;5.05;;;1.60;;
12302;SDS011;6214;48.012;7.862;2024-01-30T11:49:24;5.70;;;1.50;;
12302;SDS011;6214;48.012;7.862;2024-01-30T11:51:51;5.25;;;1.73;;
12302;SDS011;6214;48.012;7.862;2024-01-30T11:54:19;5.00;;;1.80;;
12302;SDS011;6214;48.012;7.862;2024-01-30T11:56:46;6.50;;;2.00;;
12302;SDS011;6214;48.012;7.862;2024-01-30T11:59:13;4.70;;;1.50;;
12302;SDS011;6214;48.012;7.862;2024-01-30T12:01:40;5.40;;;1.90;;
12302;SDS011;6214;48.012;7.862;2024-01-30T12:04:07;5.15;;;1.80;;
12302;SDS011;6214;48.012;7.862;2024-01-30T12:06:37;5.00;;;1.70;;
12302;SDS011;6214;48.012;7.862;2024-01-30T12:09:05;4.90;;;1.50;;
12302;SDS011;6214;48.012;7.862;2024-01-30T12:11:43;4.80;;;1.40;;
12302;SDS011;6214;48.012;7.862;2024-01-30T12:14:11;4.80;;;1.50;;
12302;SDS011;6214;48.012;7.862;2024-01-30T12:16:38;5.30;;;1.60;;
12302;SDS011;6214;48.012;7.862;2024-01-30T12:19:05;5.18;;;1.42;;
12302;SDS011;6214;48.012;7.862;2024-01-30T12:21:33;4.90;;;1.50;;
12302;SDS011;6214;48.012;7.862;2024-01-30T12:24:00;4.90;;;1.55;;
12302;SDS011;6214;48.012;7.862;2024-01-30T12:26:27;5.25;;;1.60;;
12302;SDS011;6214;48.012;7.862;2024-01-30T12:28:55;4.93;;;1.50;;
12302;SDS011;6214;48.012;7.862;2024-01-30T12:31:25;5.80;;;1.80;;
12302;SDS011;6214;48.012;7.862;2024-01-30T12:33:54;5.20;;;1.70;;
12302;SDS011;6214;48.012;7.862;2024-01-30T12:36:25;5.40;;;1.70;;
12302;SDS011;6214;48.012;7.862;2024-01-30T12:38:52;5.80;;;2.10;;
12302;SDS011;6214;48.012;7.862;2024-01-30T12:41:19;6.20;;;2.17;;
12302;SDS011;6214;48.012;7.862;2024-01-30T12:43:46;5.40;;;1.60;;
12302;SDS011;6214;48.012;7.862;2024-01-30T12:46:16;5.70;;;1.70;;
12302;SDS011;6214;48.012;7.862;2024-01-30T12:48:44;5.00;;;1.60;;
12302;SDS011;6214;48.012;7.862;2024-01-30T12:51:11;5.78;;;2.13;;
12302;SDS011;6214;48.012;7.862;2024-01-30T12:53:38;5.30;;;2.08;;
12302;SDS011;6214;48.012;7.862;2024-01-30T12:56:05;5.00;;;1.40;;
12302;SDS011;6214;48.012;7.862;2024-01-30T12:58:32;5.82;;;2.10;;
12302;SDS011;6214;48.012;7.862;2024-01-30T13:00:58;6.03;;;2.40;;
12302;SDS011;6214;48.012;7.862;2024-01-30T13:03:26;5.85;;;2.25;;
12302;SDS011;6214;48.012;7.862;2024-01-30T13:05:53;5.85;;;2.25;;
12302;SDS011;6214;48.012;7.862;2024-01-30T13:08:21;5.95;;;2.30;;
12302;SDS011;6214;48.012;7.862;2024-01-30T13:10:48;5.60;;;2.10;;
12302;SDS011;6214;48.012;7.862;2024-01-30T13:13:15;5.10;;;1.60;;
12302;SDS011;6214;48.012;7.862;2024-01-30T13:15:46;5.00;;;1.45;;
12302;SDS011;6214;48.012;7.862;2024-01-30T13:18:14;5.63;;;1.88;;
12302;SDS011;6214;48.012;7.862;2024-01-30T13:20:41;5.60;;;1.90;;
12302;SDS011;6214;48.012;7.862;2024-01-30T13:23:08;5.07;;;1.27;;
12302;SDS011;6214;48.012;7.862;2024-01-30T13:25:35;4.60;;;1.30;;
12302;SDS011;6214;48.012;7.862;2024-01-30T13:28:02;5.00;;;1.40;;
12302;SDS011;6214;48.012;7.862;2024-01-30T13:30:30;4.40;;;0.90;;
12302;SDS011;6214;48.012;7.862;2024-01-30T13:32:56;4.63;;;1.20;;
12302;SDS011;6214;48.012;7.862;2024-01-30T13:35:25;5.10;;;1.40;;
12302;SDS011;6214;48.012;7.862;2024-01-30T13:37:51;5.72;;;1.67;;
12302;SDS011;6214;48.012;7.862;2024-01-30T13:40:18;4.68;;;1.20;;
12302;SDS011;6214;48.012;7.862;2024-01-30T13:42:45;4.40;;;1.00;;
12302;SDS011;6214;48.012;7.862;2024-01-30T13:45:12;4.40;;;0.93;;
12302;SDS011;6214;48.012;7.862;2024-01-30T13:47:39;4.65;;;1.25;;
12302;SDS011;6214;48.012;7.862;2024-01-30T13:50:06;4.70;;;1.10;;
12302;SDS011;6214;48.012;7.862;2024-01-30T13:52:34;4.45;;;0.88;;
12302;SDS011;6214;48.012;7.862;2024-01-30T13:55:10;4.40;;;1.00;;
12302;SDS011;6214;48.012;7.862;2024-01-30T13:57:37;4.70;;;1.20;;
12302;SDS011;6214;48.012;7.862;2024-01-30T14:00:05;5.28;;;1.60;;
12302;SDS011;6214;48.012;7.862;2024-01-30T14:02:33;5.00;;;1.50;;
12302;SDS011;6214;48.012;7.862;2024-01-30T14:05:00;4.63;;;1.00;;
12302;SDS011;6214;48.012;7.862;2024-01-30T14:07:27;4.72;;;1.17;;
12302;SDS011;6214;48.012;7.862;2024-01-30T14:09:54;4.90;;;1.50;;
12302;SDS011;6214;48.012;7.862;2024-01-30T14:12:22;4.80;;;1.40;;
12302;SDS011;6214;48.012;7.862;2024-01-30T14:14:48;5.60;;;1.42;;
12302;SDS011;6214;48.012;7.862;2024-01-30T14:17:15;4.85;;;1.40;;
12302;SDS011;6214;48.012;7.862;2024-01-30T14:19:42;4.80;;;1.30;;
12302;SDS011;6214;48.012;7.862;2024-01-30T14:22:09;4.50;;;1.17;;
12302;SDS011;6214;48.012;7.862;2024-01-30T14:24:36;4.70;;;1.20;;
12302;SDS011;6214;48.012;7.862;2024-01-30T14:27:03;5.70;;;1.80;;
12302;SDS011;6214;48.012;7.862;2024-01-30T14:29:30;4.80;;;1.40;;
12302;SDS011;6214;48.012;7.862;2024-01-30T14:31:57;4.70;;;1.30;;
12302;SDS011;6214;48.012;7.862;2024-01-30T14:34:24;4.70;;;1.20;;
12302;SDS011;6214;48.012;7.862;2024-01-30T14:36:51;4.80;;;1.40;;
12302;SDS011;6214;48.012;7.862;2024-01-30T14:39:18;5.03;;;1.13;;
12302;SDS011;6214;48.012;7.862;2024-01-30T14:41:45;4.80;;;1.50;;
12302;SDS011;6214;48.012;7.862;2024-01-30T14:44:12;4.60;;;1.10;;
12302;SDS011;6214;48.012;7.862;2024-01-30T14:46:40;5.30;;;1.70;;
12302;SDS011;6214;48.012;7.862;2024-01-30T14:49:07;5.10;;;1.70;;
12302;SDS011;6214;48.012;7.862;2024-01-30T14:51:36;5.63;;;2.00;;
12302;SDS011;6214;48.012;7.862;2024-01-30T14:54:03;5.40;;;2.10;;
12302;SDS011;6214;48.012;7.862;2024-01-30T14:56:29;5.00;;;1.60;;
12302;SDS011;6214;48.012;7.862;2024-01-30T14:58:56;5.20;;;1.75;;
12302;SDS011;6214;48.012;7.862;2024-01-30T15:01:23;4.97;;;1.10;;
12302;SDS011;6214;48.012;7.862;2024-01-30T15:03:50;4.70;;;1.30;;
12302;SDS011;6214;48.012;7.862;2024-01-30T15:06:18;4.85;;;1.30;;